createdAt,value
2023-01-27T00:00:13.815Z,75.47
2023-01-27T00:02:42.037Z,75.33
2023-01-27T00:05:09.921Z,75.66
2023-01-27T00:07:36.370Z,75.91
2023-01-27T00:10:03.643Z,75.74
2023-01-27T00:12:48.437Z,75.68
2023-01-27T00:15:15.900Z,75.75
2023-01-27T00:17:42.571Z,75.73
2023-01-27T00:20:09.963Z,75.85
2023-01-27T00:22:54.735Z,75.92
2023-01-27T00:25:22.255Z,75.64
2023-01-27T00:27:48.818Z,76.14
2023-01-27T00:30:15.334Z,75.91
2023-01-27T00:33:00.391Z,75.99
2023-01-27T00:35:26.759Z,76.00
2023-01-27T00:37:53.441Z,76.34
2023-01-27T00:40:19.898Z,76.31
2023-01-27T00:42:46.275Z,76.29
2023-01-27T00:45:31.098Z,76.25
2023-01-27T00:47:57.512Z,76.14
2023-01-27T00:50:23.948Z,76.08
2023-01-27T00:52:50.840Z,76.00
2023-01-27T00:55:18.156Z,76.15
2023-01-27T00:57:44.597Z,76.33
2023-01-27T01:00:12.093Z,76.24
2023-01-27T01:02:38.557Z,76.08
2023-01-27T01:05:05.254Z,76.17
2023-01-27T01:07:31.598Z,75.85
2023-01-27T01:09:57.993Z,76.20
2023-01-27T01:12:24.364Z,75.97
2023-01-27T01:14:50.709Z,75.89
2023-01-27T01:17:17.119Z,76.12
2023-01-27T01:19:43.457Z,75.98
2023-01-27T01:22:09.961Z,75.88
2023-01-27T01:24:36.332Z,76.35
2023-01-27T01:27:02.698Z,76.27
2023-01-27T01:29:29.068Z,76.11
2023-01-27T01:31:55.481Z,76.43
2023-01-27T01:34:21.801Z,76.28
2023-01-27T01:36:48.174Z,76.54
2023-01-27T01:39:14.573Z,76.42
2023-01-27T01:41:40.990Z,76.35
2023-01-27T01:44:30.801Z,75.57
2023-01-27T01:46:57.886Z,76.41
2023-01-27T01:49:30.538Z,76.09
2023-01-27T01:52:03.027Z,76.16
2023-01-27T01:54:38.567Z,75.91
2023-01-27T01:57:10.881Z,76.33
2023-01-27T02:00:07.699Z,75.65
2023-01-27T02:02:35.952Z,76.40
2023-01-27T02:05:15.028Z,75.97
2023-01-27T02:08:03.204Z,76.30
2023-01-27T02:10:29.672Z,76.44
2023-01-27T02:12:56.330Z,76.66
2023-01-27T02:15:22.776Z,76.61
2023-01-27T02:17:49.385Z,76.43
2023-01-27T02:20:27.626Z,76.34
2023-01-27T02:23:31.153Z,76.19
2023-01-27T02:26:13.550Z,76.57
2023-01-27T02:28:39.985Z,76.63
2023-01-27T02:31:06.447Z,76.73
2023-01-27T02:33:32.926Z,76.68
2023-01-27T02:36:05.662Z,76.17
2023-01-27T02:38:39.229Z,76.29
2023-01-27T02:41:21.336Z,76.11
2023-01-27T02:43:49.183Z,76.73
2023-01-27T02:46:16.315Z,76.88
2023-01-27T02:48:42.922Z,76.97
2023-01-27T02:51:09.495Z,76.60
2023-01-27T02:53:35.890Z,76.67
2023-01-27T02:56:02.402Z,76.92
2023-01-27T02:58:28.782Z,76.79
2023-01-27T03:00:55.163Z,76.68
2023-01-27T03:03:21.584Z,76.54
2023-01-27T03:05:50.770Z,76.68
2023-01-27T03:08:18.582Z,76.55
2023-01-27T03:10:45.588Z,76.73
2023-01-27T03:13:12.017Z,76.77
2023-01-27T03:15:56.863Z,76.37
2023-01-27T03:18:23.301Z,76.42
2023-01-27T03:20:49.825Z,76.23
2023-01-27T03:23:20.848Z,76.24
2023-01-27T03:25:48.285Z,76.75
2023-01-27T03:28:15.219Z,76.98
2023-01-27T03:30:41.894Z,76.64
2023-01-27T03:33:08.348Z,76.69
2023-01-27T03:35:39.649Z,76.79
2023-01-27T03:38:30.683Z,76.38
2023-01-27T03:41:15.945Z,76.76
2023-01-27T03:44:00.748Z,76.86
2023-01-27T03:46:27.288Z,77.13
2023-01-27T03:48:55.741Z,76.95
2023-01-27T03:51:24.252Z,76.65
2023-01-27T03:53:50.838Z,76.70
2023-01-27T03:56:19.117Z,76.83
2023-01-27T03:58:45.867Z,77.10
2023-01-27T04:01:18.949Z,76.54
2023-01-27T04:04:05.016Z,77.12
2023-01-27T04:06:52.158Z,76.99
2023-01-27T04:09:36.173Z,76.34
2023-01-27T04:12:04.994Z,76.83
2023-01-27T04:14:42.119Z,76.48
2023-01-27T04:17:18.822Z,76.37
2023-01-27T04:19:46.624Z,76.54
2023-01-27T04:22:13.930Z,77.06
2023-01-27T04:24:40.308Z,76.78
2023-01-27T04:27:12.302Z,76.75
2023-01-27T04:29:41.209Z,76.73
2023-01-27T04:34:52.672Z,76.75
2023-01-27T04:37:19.026Z,76.95
2023-01-27T04:39:45.902Z,77.01
2023-01-27T04:42:12.287Z,77.08
2023-01-27T04:44:38.647Z,77.06
2023-01-27T04:47:05.031Z,76.80
2023-01-27T04:49:31.364Z,76.81
2023-01-27T04:51:57.677Z,76.95
2023-01-27T04:54:24.000Z,76.98
2023-01-27T04:57:03.406Z,76.48
2023-01-27T04:59:29.766Z,76.85
2023-01-27T05:01:56.183Z,76.85
2023-01-27T05:04:22.661Z,77.03
2023-01-27T05:06:49.040Z,76.93
2023-01-27T05:09:15.422Z,76.85
2023-01-27T05:11:41.755Z,77.18
2023-01-27T05:14:08.128Z,77.07
2023-01-27T05:16:34.491Z,77.18
2023-01-27T05:19:01.992Z,77.25
2023-01-27T05:21:28.472Z,77.26
2023-01-27T05:23:54.878Z,77.06
2023-01-27T05:26:25.703Z,77.09
2023-01-27T05:28:53.164Z,77.19
2023-01-27T05:31:22.418Z,76.88
2023-01-27T05:33:51.300Z,76.76
2023-01-27T05:36:20.222Z,76.95
2023-01-27T05:38:46.853Z,77.14
2023-01-27T05:41:14.527Z,77.17
2023-01-27T05:43:42.786Z,77.23
2023-01-27T05:46:13.276Z,77.21
2023-01-27T05:48:45.535Z,77.09
2023-01-27T05:51:15.126Z,76.86
2023-01-27T05:53:42.540Z,77.03
2023-01-27T05:56:11.449Z,77.22
2023-01-27T05:58:38.801Z,77.18
2023-01-27T06:01:09.158Z,76.95
2023-01-27T06:03:36.136Z,77.00
2023-01-27T06:06:03.542Z,77.01
2023-01-27T06:08:30.514Z,77.24
2023-01-27T06:10:58.392Z,77.28
2023-01-27T06:13:25.095Z,77.22
2023-01-27T06:15:51.635Z,77.34
2023-01-27T06:18:19.274Z,77.24
2023-01-27T06:20:45.964Z,77.39
2023-01-27T06:23:13.742Z,77.13
2023-01-27T06:25:45.867Z,77.29
2023-01-27T06:28:27.161Z,77.06
2023-01-27T06:30:56.229Z,76.87
2023-01-27T06:33:22.650Z,77.17
2023-01-27T06:35:49.158Z,76.94
2023-01-27T06:38:15.607Z,77.18
2023-01-27T06:40:43.175Z,77.25
2023-01-27T06:43:16.372Z,76.83
2023-01-27T06:45:42.733Z,77.03
2023-01-27T06:48:09.088Z,76.93
2023-01-27T06:50:36.569Z,77.03
2023-01-27T06:53:06.722Z,76.98
2023-01-27T06:55:34.077Z,76.99
2023-01-27T06:58:03.445Z,77.11
2023-01-27T07:00:30.202Z,77.32
2023-01-27T07:02:57.393Z,77.08
2023-01-27T07:05:24.492Z,77.21
2023-01-27T07:07:50.984Z,77.24
2023-01-27T07:10:17.904Z,77.09
2023-01-27T07:12:44.369Z,76.88
2023-01-27T07:15:11.310Z,77.17
2023-01-27T07:17:37.735Z,76.99
2023-01-27T07:20:06.579Z,77.02
2023-01-27T07:22:32.940Z,77.12
2023-01-27T07:24:59.418Z,77.34
2023-01-27T07:27:26.111Z,77.25
2023-01-27T07:29:52.568Z,77.41
2023-01-27T07:32:19.171Z,76.87
2023-01-27T07:34:45.494Z,77.07
2023-01-27T07:37:11.881Z,76.91
2023-01-27T07:39:38.890Z,76.93
2023-01-27T07:42:06.615Z,76.93
2023-01-27T07:44:33.156Z,76.92
2023-01-27T07:46:59.866Z,77.06
2023-01-27T07:49:27.559Z,77.18
2023-01-27T07:51:54.203Z,76.95
2023-01-27T07:54:20.775Z,76.93
2023-01-27T07:56:47.243Z,77.17
2023-01-27T07:59:13.679Z,76.99
2023-01-27T08:01:41.721Z,77.16
2023-01-27T08:04:08.370Z,77.07
2023-01-27T08:06:34.881Z,76.79
2023-01-27T08:09:01.275Z,77.02
2023-01-27T08:11:27.610Z,77.01
2023-01-27T08:13:54.041Z,77.06
2023-01-27T08:16:20.576Z,77.15
2023-01-27T08:18:46.936Z,77.21
2023-01-27T08:21:13.386Z,77.07
2023-01-27T08:23:41.360Z,77.03
2023-01-27T08:26:07.883Z,77.19
2023-01-27T08:28:36.612Z,76.84
2023-01-27T08:31:15.873Z,76.13
2023-01-27T08:33:44.192Z,77.17
2023-01-27T08:36:16.407Z,76.61
2023-01-27T08:38:44.679Z,76.91
2023-01-27T08:41:13.694Z,76.68
2023-01-27T08:43:40.245Z,76.64
2023-01-27T08:46:07.357Z,76.66
2023-01-27T08:48:34.871Z,76.41
2023-01-27T08:51:01.859Z,76.26
2023-01-27T08:53:28.591Z,76.41
2023-01-27T08:56:02.055Z,75.98
2023-01-27T08:58:28.422Z,76.56
2023-01-27T09:00:54.792Z,76.71
2023-01-27T09:03:21.192Z,76.38
2023-01-27T09:05:48.045Z,76.62
2023-01-27T09:08:19.422Z,76.43
2023-01-27T09:10:45.763Z,76.67
2023-01-27T09:13:12.227Z,76.69
2023-01-27T09:15:40.534Z,76.78
2023-01-27T09:18:07.019Z,76.68
2023-01-27T09:20:34.410Z,76.40
2023-01-27T09:23:01.129Z,76.67
2023-01-27T09:25:27.966Z,76.79
2023-01-27T09:27:56.036Z,76.29
2023-01-27T09:30:24.015Z,76.65
2023-01-27T09:32:50.392Z,76.60
2023-01-27T09:35:17.292Z,76.52
2023-01-27T09:37:57.747Z,74.96
2023-01-27T09:40:39.414Z,75.51
2023-01-27T09:43:31.425Z,75.49
2023-01-27T09:46:19.418Z,76.19
2023-01-27T09:48:57.451Z,76.71
2023-01-27T09:51:51.608Z,75.68
2023-01-27T09:54:44.502Z,75.40
2023-01-27T09:57:53.641Z,75.48
2023-01-27T10:00:47.270Z,75.79
2023-01-27T10:03:13.563Z,76.49
2023-01-27T10:05:58.143Z,76.85
2023-01-27T10:08:56.053Z,75.58
2023-01-27T10:11:37.987Z,75.40
2023-01-27T10:14:36.819Z,75.61
2023-01-27T10:17:20.581Z,75.37
2023-01-27T10:19:58.282Z,75.11
2023-01-27T10:22:44.843Z,76.25
2023-01-27T10:25:51.427Z,74.66
2023-01-27T10:28:22.870Z,75.65
2023-01-27T10:31:03.062Z,75.39
2023-01-27T10:36:27.320Z,75.14
2023-01-27T10:39:09.655Z,76.97
2023-01-27T10:42:00.082Z,75.96
2023-01-27T10:44:47.748Z,74.81
2023-01-27T10:47:34.552Z,75.24
2023-01-27T10:50:07.016Z,75.56
2023-01-27T10:52:52.195Z,74.62
2023-01-27T10:55:45.122Z,74.51
2023-01-27T10:58:23.515Z,74.50
2023-01-27T11:03:47.828Z,75.30
2023-01-27T11:06:17.296Z,75.63
2023-01-27T11:08:47.708Z,74.72
2023-01-27T11:11:36.728Z,74.74
2023-01-27T11:14:17.053Z,73.36
2023-01-27T11:16:53.047Z,73.23
2023-01-27T11:19:42.569Z,73.13
2023-01-27T11:22:21.420Z,73.33
2023-01-27T11:24:58.932Z,73.69
2023-01-27T11:27:48.205Z,72.95
2023-01-27T11:30:27.854Z,73.69
2023-01-27T11:32:59.973Z,74.07
2023-01-27T11:35:26.633Z,74.92
2023-01-27T11:37:58.199Z,74.94
2023-01-27T11:40:32.665Z,74.79
2023-01-27T11:42:59.716Z,74.78
2023-01-27T11:45:27.425Z,74.91
2023-01-27T11:48:02.144Z,73.84
2023-01-27T11:50:34.677Z,74.18
2023-01-27T11:53:15.986Z,73.83
2023-01-27T11:55:57.820Z,73.61
2023-01-27T11:58:34.037Z,73.57
2023-01-27T12:01:05.452Z,74.45
2023-01-27T12:04:09.767Z,73.26
2023-01-27T12:06:44.782Z,73.68
2023-01-27T12:09:34.327Z,73.29
2023-01-27T12:12:11.887Z,73.47
2023-01-27T12:14:38.325Z,74.82
2023-01-27T12:17:07.976Z,74.38
2023-01-27T12:19:40.981Z,73.66
2023-01-27T12:22:14.949Z,73.29
2023-01-27T12:24:47.907Z,73.64
2023-01-27T12:27:20.647Z,73.08
2023-01-27T12:29:55.443Z,73.74
2023-01-27T12:32:32.918Z,72.36
2023-01-27T12:34:59.697Z,74.30
2023-01-27T12:37:34.317Z,73.04
2023-01-27T12:40:05.715Z,73.68
2023-01-27T12:42:39.711Z,73.49
2023-01-27T12:45:33.479Z,72.69
2023-01-27T12:48:09.017Z,72.99
2023-01-27T12:50:41.365Z,73.60
2023-01-27T12:53:27.507Z,72.58
2023-01-27T12:56:14.681Z,72.67
2023-01-27T12:58:46.216Z,73.62
2023-01-27T13:01:21.603Z,73.07
2023-01-27T13:03:54.808Z,72.08
2023-01-27T13:06:30.563Z,72.81
2023-01-27T13:08:58.080Z,73.81
2023-01-27T13:11:34.552Z,72.80
2023-01-27T13:14:00.975Z,74.00
2023-01-27T13:16:30.233Z,73.87
2023-01-27T13:18:59.471Z,73.45
2023-01-27T13:21:35.699Z,72.75
2023-01-27T13:24:12.622Z,73.03
2023-01-27T13:26:40.791Z,73.76
2023-01-27T13:29:10.012Z,73.07
2023-01-27T13:31:51.786Z,72.00
2023-01-27T13:34:40.492Z,71.79
2023-01-27T13:37:16.227Z,72.45
2023-01-27T13:39:55.190Z,72.60
2023-01-27T13:42:36.861Z,72.78
2023-01-27T13:45:10.485Z,73.41
2023-01-27T13:48:01.189Z,72.32
2023-01-27T13:50:36.006Z,72.32
2023-01-27T13:53:04.266Z,73.33
2023-01-27T13:55:48.956Z,73.54
2023-01-27T13:58:27.629Z,71.92
2023-01-27T14:00:53.969Z,73.64
2023-01-27T14:03:37.642Z,71.70
2023-01-27T14:06:09.071Z,72.31
2023-01-27T14:09:01.677Z,71.83
2023-01-27T14:11:47.665Z,71.20
2023-01-27T14:14:36.382Z,72.65
2023-01-27T14:17:15.648Z,71.96
2023-01-27T14:20:24.900Z,71.78
2023-01-27T14:23:09.094Z,71.76
2023-01-27T14:25:44.848Z,73.29
2023-01-27T14:28:28.480Z,72.19
2023-01-27T14:31:06.055Z,72.64
2023-01-27T14:34:06.068Z,72.02
2023-01-27T14:36:42.694Z,73.10
2023-01-27T14:39:24.937Z,72.22
2023-01-27T14:42:29.530Z,72.00
2023-01-27T14:45:20.671Z,72.03
2023-01-27T14:48:00.734Z,72.36
2023-01-27T14:50:51.878Z,71.96
2023-01-27T14:53:30.205Z,71.82
2023-01-27T14:56:11.554Z,71.62
2023-01-27T14:58:47.525Z,72.03
2023-01-27T15:01:44.723Z,71.60
2023-01-27T15:04:34.517Z,72.03
2023-01-27T15:07:34.791Z,71.65
2023-01-27T15:10:20.560Z,71.52
2023-01-27T15:13:11.779Z,73.52
2023-01-27T15:15:56.788Z,71.47
2023-01-27T15:18:31.735Z,72.03
2023-01-27T15:21:23.040Z,71.67
2023-01-27T15:24:18.808Z,72.86
2023-01-27T15:26:47.792Z,73.25
2023-01-27T15:29:17.304Z,73.39
2023-01-27T15:32:03.921Z,73.69
2023-01-27T15:34:30.362Z,73.51
2023-01-27T15:37:03.804Z,72.74
2023-01-27T15:39:40.767Z,73.47
2023-01-27T15:42:11.205Z,73.17
2023-01-27T15:45:00.477Z,72.47
2023-01-27T15:47:30.504Z,72.74
2023-01-27T15:50:22.832Z,71.70
2023-01-27T15:52:50.802Z,72.86
2023-01-27T15:55:27.863Z,71.74
2023-01-27T15:58:43.392Z,71.12
2023-01-27T16:01:22.683Z,72.95
2023-01-27T16:03:51.412Z,72.94
2023-01-27T16:06:24.237Z,72.09
2023-01-27T16:09:01.176Z,71.94
2023-01-27T16:11:30.505Z,72.55
2023-01-27T16:14:23.001Z,71.78
2023-01-27T16:16:52.158Z,72.44
2023-01-27T16:19:28.862Z,72.09
2023-01-27T16:22:07.000Z,72.04
2023-01-27T16:24:50.751Z,71.95
2023-01-27T16:27:35.838Z,73.00
2023-01-27T16:30:22.545Z,71.49
2023-01-27T16:32:57.741Z,72.83
2023-01-27T16:35:24.350Z,73.45
2023-01-27T16:38:06.434Z,71.75
2023-01-27T16:40:34.471Z,73.09
2023-01-27T16:43:16.640Z,71.82
2023-01-27T16:45:53.958Z,71.65
2023-01-27T16:48:42.245Z,73.25
2023-01-27T16:51:18.614Z,72.05
2023-01-27T16:53:50.440Z,72.41
2023-01-27T16:56:26.914Z,72.00
2023-01-27T16:59:05.696Z,71.53
2023-01-27T17:01:47.035Z,71.58
2023-01-27T17:04:25.842Z,72.20
2023-01-27T17:06:56.282Z,72.93
2023-01-27T17:09:28.141Z,72.82
2023-01-27T17:11:55.515Z,72.95
2023-01-27T17:14:31.785Z,72.40
2023-01-27T17:17:01.454Z,72.88
2023-01-27T17:19:31.497Z,72.69
2023-01-27T17:22:06.583Z,72.39
2023-01-27T17:24:49.892Z,71.94
2023-01-27T17:27:26.829Z,72.39
2023-01-27T17:30:00.634Z,73.17
2023-01-27T17:32:30.891Z,73.24
2023-01-27T17:35:00.291Z,73.31
2023-01-27T17:37:30.359Z,72.94
2023-01-27T17:40:03.154Z,72.79
2023-01-27T17:42:32.195Z,73.41
2023-01-27T17:45:26.703Z,72.01
2023-01-27T17:47:53.990Z,73.42
2023-01-27T17:50:23.722Z,72.92
2023-01-27T17:52:53.204Z,73.03
2023-01-27T17:55:25.221Z,72.67
2023-01-27T17:58:02.276Z,72.36
2023-01-27T18:00:34.617Z,73.03
2023-01-27T18:03:06.355Z,73.14
2023-01-27T18:05:33.940Z,73.69
2023-01-27T18:08:01.391Z,73.52
2023-01-27T18:10:37.780Z,72.57
2023-01-27T18:13:19.409Z,72.16
2023-01-27T18:15:51.934Z,72.37
2023-01-27T18:18:25.656Z,72.73
2023-01-27T18:21:00.796Z,72.08
2023-01-27T18:23:30.457Z,72.87
2023-01-27T18:26:40.680Z,71.83
2023-01-27T18:29:17.301Z,72.33
2023-01-27T18:32:07.762Z,72.14
2023-01-27T18:34:45.932Z,71.48
2023-01-27T18:37:26.971Z,70.98
2023-01-27T18:39:54.327Z,72.62
2023-01-27T18:42:22.736Z,72.40
2023-01-27T18:44:50.622Z,72.73
2023-01-27T18:47:16.975Z,72.81
2023-01-27T18:50:13.013Z,71.09
2023-01-27T18:52:40.106Z,72.60
2023-01-27T18:55:26.821Z,70.69
2023-01-27T18:58:00.465Z,71.24
2023-01-27T19:00:31.233Z,72.10
2023-01-27T19:03:00.872Z,72.33
2023-01-27T19:05:30.082Z,72.52
2023-01-27T19:07:56.666Z,72.67
2023-01-27T19:10:25.847Z,72.30
2023-01-27T19:12:53.046Z,72.40
2023-01-27T19:15:23.649Z,72.39
2023-01-27T19:17:58.317Z,71.65
2023-01-27T19:20:28.284Z,72.39
2023-01-27T19:22:56.301Z,72.37
2023-01-27T19:25:24.813Z,72.33
2023-01-27T19:27:54.090Z,72.49
2023-01-27T19:30:27.256Z,71.90
2023-01-27T19:32:55.135Z,72.62
2023-01-27T19:35:26.266Z,71.52
2023-01-27T19:37:55.287Z,72.41
2023-01-27T19:40:26.871Z,71.23
2023-01-27T19:42:54.153Z,71.80
2023-01-27T19:45:21.978Z,71.84
2023-01-27T19:47:49.396Z,71.63
2023-01-27T19:50:21.652Z,71.85
2023-01-27T19:52:48.285Z,72.01
2023-01-27T19:55:16.237Z,71.77
2023-01-27T19:57:42.945Z,71.82
2023-01-27T20:00:21.738Z,70.82
2023-01-27T20:02:48.162Z,71.85
2023-01-27T20:05:14.852Z,71.81
2023-01-27T20:07:41.513Z,71.70
2023-01-27T20:10:17.020Z,70.71
2023-01-27T20:12:44.575Z,71.78
2023-01-27T20:15:16.880Z,70.88
2023-01-27T20:17:43.457Z,71.60
2023-01-27T20:20:10.638Z,71.40
2023-01-27T20:22:37.322Z,71.33
2023-01-27T20:25:04.240Z,71.54
2023-01-27T20:27:30.776Z,71.52
2023-01-27T20:29:57.080Z,71.80
2023-01-27T20:32:24.289Z,71.58
2023-01-27T20:34:50.611Z,71.70
2023-01-27T20:37:17.497Z,71.64
2023-01-27T20:39:43.927Z,71.72
2023-01-27T20:42:10.261Z,71.77
2023-01-27T20:44:36.562Z,72.04
2023-01-27T20:47:02.889Z,72.13
2023-01-27T20:49:29.185Z,71.94
2023-01-27T20:51:55.729Z,71.67
2023-01-27T20:54:22.180Z,71.76
2023-01-27T20:56:48.471Z,71.63
2023-01-27T20:59:14.992Z,71.79
2023-01-27T21:01:41.844Z,71.66
2023-01-27T21:04:08.189Z,71.92
2023-01-27T21:06:35.067Z,71.41
2023-01-27T21:09:01.369Z,71.57
2023-01-27T21:11:27.695Z,71.56
2023-01-27T21:13:54.169Z,71.59
2023-01-27T21:16:20.609Z,71.40
2023-01-27T21:18:47.005Z,71.68
2023-01-27T21:21:31.659Z,69.85
2023-01-27T21:23:59.943Z,71.59
2023-01-27T21:26:26.975Z,71.42
2023-01-27T21:28:53.369Z,71.61
2023-01-27T21:31:21.779Z,71.28
2023-01-27T21:33:49.927Z,71.40
2023-01-27T21:36:17.636Z,71.27
2023-01-27T21:38:44.048Z,71.43
2023-01-27T21:41:34.819Z,70.95
2023-01-27T21:44:20.123Z,70.86
2023-01-27T21:46:46.482Z,70.65
2023-01-27T21:49:12.814Z,70.55
2023-01-27T21:51:39.126Z,70.42
2023-01-27T21:54:05.497Z,70.50
2023-01-27T21:56:31.806Z,70.36
2023-01-27T21:58:58.139Z,70.31
2023-01-27T22:01:25.070Z,70.33
2023-01-27T22:03:51.475Z,70.48
2023-01-27T22:06:17.825Z,70.52
2023-01-27T22:08:44.376Z,70.88
2023-01-27T22:11:12.558Z,70.84
2023-01-27T22:13:39.087Z,70.75
2023-01-27T22:16:05.992Z,70.63
2023-01-27T22:18:32.394Z,70.53
2023-01-27T22:21:02.145Z,69.99
2023-01-27T22:23:28.617Z,70.43
2023-01-27T22:25:54.977Z,70.56
2023-01-27T22:28:23.020Z,70.24
2023-01-27T22:30:49.537Z,70.32
2023-01-27T22:33:15.916Z,70.63
